sensor_id;sensor_type;location;lat;lon;timestamp;P1;durP1;ratioP1;P2;durP2;ratioP2
52878;SDS011;38747;53.140;6.498;2023-07-09T00:01:17;11.97;;;6.60;;
52878;SDS011;38747;53.140;6.498;2023-07-09T00:03:44;9.10;;;5.25;;
52878;SDS011;38747;53.140;6.498;2023-07-09T00:06:11;10.60;;;5.30;;
52878;SDS011;38747;53.140;6.498;2023-07-09T00:08:38;9.63;;;4.90;;
52878;SDS011;38747;53.140;6.498;2023-07-09T00:11:09;11.50;;;5.65;;
52878;SDS011;38747;53.140;6.498;2023-07-09T00:13:35;8.90;;;5.50;;
52878;SDS011;38747;53.140;6.498;2023-07-09T00:16:02;8.90;;;5.30;;
52878;SDS011;38747;53.140;6.498;2023-07-09T00:18:36;8.15;;;4.95;;
52878;SDS011;38747;53.140;6.498;2023-07-09T00:21:02;9.07;;;5.43;;
52878;SDS011;38747;53.140;6.498;2023-07-09T00:23:28;11.05;;;5.72;;
52878;SDS011;38747;53.140;6.498;2023-07-09T00:25:54;10.70;;;5.50;;
52878;SDS011;38747;53.140;6.498;2023-07-09T00:28:20;9.20;;;5.47;;
52878;SDS011;38747;53.140;6.498;2023-07-09T00:30:46;10.50;;;5.50;;
52878;SDS011;38747;53.140;6.498;2023-07-09T00:33:14;9.73;;;5.50;;
52878;SDS011;38747;53.140;6.498;2023-07-09T00:35:41;9.10;;;5.60;;
52878;SDS011;38747;53.140;6.498;2023-07-09T00:38:26;10.90;;;5.63;;
52878;SDS011;38747;53.140;6.498;2023-07-09T00:41:05;10.05;;;5.72;;
52878;SDS011;38747;53.140;6.498;2023-07-09T00:43:48;11.15;;;5.53;;
52878;SDS011;38747;53.140;6.498;2023-07-09T00:48:56;9.13;;;5.70;;
52878;SDS011;38747;53.140;6.498;2023-07-09T00:51:26;11.00;;;5.37;;
52878;SDS011;38747;53.140;6.498;2023-07-09T00:53:55;10.00;;;5.28;;
52878;SDS011;38747;53.140;6.498;2023-07-09T00:56:26;12.27;;;5.50;;
52878;SDS011;38747;53.140;6.498;2023-07-09T00:58:57;9.80;;;5.32;;
52878;SDS011;38747;53.140;6.498;2023-07-09T01:01:29;8.75;;;5.32;;
52878;SDS011;38747;53.140;6.498;2023-07-09T01:03:56;8.70;;;5.53;;
52878;SDS011;38747;53.140;6.498;2023-07-09T01:06:34;10.48;;;5.35;;
52878;SDS011;38747;53.140;6.498;2023-07-09T01:09:10;8.23;;;5.50;;
52878;SDS011;38747;53.140;6.498;2023-07-09T01:11:36;11.18;;;5.45;;
52878;SDS011;38747;53.140;6.498;2023-07-09T01:14:06;10.15;;;5.80;;
52878;SDS011;38747;53.140;6.498;2023-07-09T01:16:36;10.70;;;5.77;;
52878;SDS011;38747;53.140;6.498;2023-07-09T01:19:06;10.32;;;5.40;;
52878;SDS011;38747;53.140;6.498;2023-07-09T01:21:32;11.05;;;6.05;;
52878;SDS011;38747;53.140;6.498;2023-07-09T01:23:58;10.47;;;5.70;;
52878;SDS011;38747;53.140;6.498;2023-07-09T01:26:25;10.02;;;5.68;;
52878;SDS011;38747;53.140;6.498;2023-07-09T01:28:53;9.63;;;6.20;;
52878;SDS011;38747;53.140;6.498;2023-07-09T01:31:20;10.50;;;5.95;;
52878;SDS011;38747;53.140;6.498;2023-07-09T01:33:45;10.23;;;5.90;;
52878;SDS011;38747;53.140;6.498;2023-07-09T01:36:16;9.83;;;6.03;;
52878;SDS011;38747;53.140;6.498;2023-07-09T01:38:47;11.57;;;6.55;;
52878;SDS011;38747;53.140;6.498;2023-07-09T01:41:14;11.48;;;6.05;;
52878;SDS011;38747;53.140;6.498;2023-07-09T01:43:40;11.32;;;5.40;;
52878;SDS011;38747;53.140;6.498;2023-07-09T01:46:08;9.65;;;5.50;;
52878;SDS011;38747;53.140;6.498;2023-07-09T01:48:35;10.40;;;6.00;;
52878;SDS011;38747;53.140;6.498;2023-07-09T01:51:14;9.93;;;5.80;;
52878;SDS011;38747;53.140;6.498;2023-07-09T01:53:41;10.70;;;5.93;;
52878;SDS011;38747;53.140;6.498;2023-07-09T01:56:09;9.60;;;5.65;;
52878;SDS011;38747;53.140;6.498;2023-07-09T01:58:35;9.52;;;5.68;;
52878;SDS011;38747;53.140;6.498;2023-07-09T02:01:06;8.93;;;5.47;;
52878;SDS011;38747;53.140;6.498;2023-07-09T02:03:33;9.63;;;6.25;;
52878;SDS011;38747;53.140;6.498;2023-07-09T02:05:59;10.10;;;6.15;;
52878;SDS011;38747;53.140;6.498;2023-07-09T02:08:24;9.80;;;5.77;;
52878;SDS011;38747;53.140;6.498;2023-07-09T02:10:50;12.18;;;6.03;;
52878;SDS011;38747;53.140;6.498;2023-07-09T02:13:16;10.07;;;5.70;;
52878;SDS011;38747;53.140;6.498;2023-07-09T02:15:42;10.30;;;6.13;;
52878;SDS011;38747;53.140;6.498;2023-07-09T02:18:09;11.90;;;6.25;;
52878;SDS011;38747;53.140;6.498;2023-07-09T02:20:35;9.57;;;5.80;;
52878;SDS011;38747;53.140;6.498;2023-07-09T02:23:01;10.77;;;6.20;;
52878;SDS011;38747;53.140;6.498;2023-07-09T02:25:27;10.10;;;6.43;;
52878;SDS011;38747;53.140;6.498;2023-07-09T02:27:53;10.25;;;5.80;;
52878;SDS011;38747;53.140;6.498;2023-07-09T02:30:18;9.77;;;6.07;;
52878;SDS011;38747;53.140;6.498;2023-07-09T02:32:44;10.95;;;6.53;;
52878;SDS011;38747;53.140;6.498;2023-07-09T02:35:10;10.53;;;6.13;;
52878;SDS011;38747;53.140;6.498;2023-07-09T02:37:35;11.48;;;5.90;;
52878;SDS011;38747;53.140;6.498;2023-07-09T02:40:04;10.07;;;6.45;;
52878;SDS011;38747;53.140;6.498;2023-07-09T02:42:30;12.83;;;6.70;;
52878;SDS011;38747;53.140;6.498;2023-07-09T02:44:56;11.52;;;6.32;;
52878;SDS011;38747;53.140;6.498;2023-07-09T02:47:22;11.57;;;5.80;;
52878;SDS011;38747;53.140;6.498;2023-07-09T02:49:47;10.73;;;6.68;;
52878;SDS011;38747;53.140;6.498;2023-07-09T02:52:13;10.97;;;6.30;;
52878;SDS011;38747;53.140;6.498;2023-07-09T02:54:39;11.00;;;6.30;;
52878;SDS011;38747;53.140;6.498;2023-07-09T02:57:05;9.65;;;6.18;;
52878;SDS011;38747;53.140;6.498;2023-07-09T02:59:32;10.82;;;6.45;;
52878;SDS011;38747;53.140;6.498;2023-07-09T03:01:58;11.95;;;6.38;;
52878;SDS011;38747;53.140;6.498;2023-07-09T03:04:25;11.40;;;6.47;;
52878;SDS011;38747;53.140;6.498;2023-07-09T03:06:51;11.55;;;6.40;;
52878;SDS011;38747;53.140;6.498;2023-07-09T03:09:17;10.15;;;6.32;;
52878;SDS011;38747;53.140;6.498;2023-07-09T03:11:44;10.65;;;6.75;;
52878;SDS011;38747;53.140;6.498;2023-07-09T03:14:10;11.50;;;6.30;;
52878;SDS011;38747;53.140;6.498;2023-07-09T03:16:36;11.55;;;6.75;;
52878;SDS011;38747;53.140;6.498;2023-07-09T03:19:02;10.35;;;6.75;;
52878;SDS011;38747;53.140;6.498;2023-07-09T03:21:29;10.33;;;6.40;;
52878;SDS011;38747;53.140;6.498;2023-07-09T03:23:55;11.23;;;6.78;;
52878;SDS011;38747;53.140;6.498;2023-07-09T03:26:22;11.07;;;6.10;;
52878;SDS011;38747;53.140;6.498;2023-07-09T03:28:48;10.30;;;6.38;;
52878;SDS011;38747;53.140;6.498;2023-07-09T03:31:14;11.40;;;6.10;;
52878;SDS011;38747;53.140;6.498;2023-07-09T03:33:40;10.15;;;6.25;;
52878;SDS011;38747;53.140;6.498;2023-07-09T03:36:05;10.43;;;6.05;;
52878;SDS011;38747;53.140;6.498;2023-07-09T03:38:31;10.63;;;5.93;;
52878;SDS011;38747;53.140;6.498;2023-07-09T03:40:58;9.82;;;6.13;;
52878;SDS011;38747;53.140;6.498;2023-07-09T03:43:23;10.55;;;6.28;;
52878;SDS011;38747;53.140;6.498;2023-07-09T03:45:49;9.63;;;6.07;;
52878;SDS011;38747;53.140;6.498;2023-07-09T03:48:16;10.97;;;6.50;;
52878;SDS011;38747;53.140;6.498;2023-07-09T03:50:43;10.55;;;6.28;;
52878;SDS011;38747;53.140;6.498;2023-07-09T03:53:10;10.90;;;6.20;;
52878;SDS011;38747;53.140;6.498;2023-07-09T03:55:36;9.70;;;5.82;;
52878;SDS011;38747;53.140;6.498;2023-07-09T03:58:02;10.77;;;6.00;;
52878;SDS011;38747;53.140;6.498;2023-07-09T04:00:29;11.55;;;6.30;;
52878;SDS011;38747;53.140;6.498;2023-07-09T04:02:55;10.68;;;6.45;;
52878;SDS011;38747;53.140;6.498;2023-07-09T04:05:25;11.88;;;5.97;;
52878;SDS011;38747;53.140;6.498;2023-07-09T04:07:51;10.18;;;6.38;;
52878;SDS011;38747;53.140;6.498;2023-07-09T04:10:17;10.70;;;6.60;;
52878;SDS011;38747;53.140;6.498;2023-07-09T04:12:43;11.82;;;6.30;;
52878;SDS011;38747;53.140;6.498;2023-07-09T04:15:09;8.93;;;5.65;;
52878;SDS011;38747;53.140;6.498;2023-07-09T04:17:37;10.02;;;6.40;;
52878;SDS011;38747;53.140;6.498;2023-07-09T04:20:04;10.07;;;6.07;;
52878;SDS011;38747;53.140;6.498;2023-07-09T04:22:31;9.57;;;6.00;;
52878;SDS011;38747;53.140;6.498;2023-07-09T04:24:57;9.10;;;5.90;;
52878;SDS011;38747;53.140;6.498;2023-07-09T04:27:23;11.40;;;6.28;;
52878;SDS011;38747;53.140;6.498;2023-07-09T04:29:52;9.73;;;5.88;;
52878;SDS011;38747;53.140;6.498;2023-07-09T04:32:19;10.77;;;6.00;;
52878;SDS011;38747;53.140;6.498;2023-07-09T04:34:46;10.25;;;5.88;;
52878;SDS011;38747;53.140;6.498;2023-07-09T04:37:11;10.55;;;6.20;;
52878;SDS011;38747;53.140;6.498;2023-07-09T04:39:38;9.40;;;6.40;;
52878;SDS011;38747;53.140;6.498;2023-07-09T04:42:09;10.23;;;6.07;;
52878;SDS011;38747;53.140;6.498;2023-07-09T04:44:37;10.38;;;6.15;;
52878;SDS011;38747;53.140;6.498;2023-07-09T04:47:03;11.15;;;6.32;;
52878;SDS011;38747;53.140;6.498;2023-07-09T04:49:28;10.20;;;5.80;;
52878;SDS011;38747;53.140;6.498;2023-07-09T04:51:54;9.32;;;5.50;;
52878;SDS011;38747;53.140;6.498;2023-07-09T04:54:21;11.88;;;5.90;;
52878;SDS011;38747;53.140;6.498;2023-07-09T04:56:48;10.67;;;6.20;;
52878;SDS011;38747;53.140;6.498;2023-07-09T04:59:14;9.93;;;6.03;;
52878;SDS011;38747;53.140;6.498;2023-07-09T05:01:39;10.93;;;6.40;;
52878;SDS011;38747;53.140;6.498;2023-07-09T05:04:05;9.32;;;6.05;;
52878;SDS011;38747;53.140;6.498;2023-07-09T05:06:32;9.93;;;6.00;;
52878;SDS011;38747;53.140;6.498;2023-07-09T05:09:00;10.75;;;6.55;;
52878;SDS011;38747;53.140;6.498;2023-07-09T05:11:25;9.38;;;6.13;;
52878;SDS011;38747;53.140;6.498;2023-07-09T05:13:51;9.90;;;5.97;;
52878;SDS011;38747;53.140;6.498;2023-07-09T05:16:22;10.33;;;6.30;;
52878;SDS011;38747;53.140;6.498;2023-07-09T05:18:48;10.52;;;6.10;;
52878;SDS011;38747;53.140;6.498;2023-07-09T05:21:14;10.30;;;6.03;;
52878;SDS011;38747;53.140;6.498;2023-07-09T05:23:40;9.77;;;6.28;;
52878;SDS011;38747;53.140;6.498;2023-07-09T05:26:05;11.20;;;6.40;;
52878;SDS011;38747;53.140;6.498;2023-07-09T05:28:31;9.43;;;6.20;;
52878;SDS011;38747;53.140;6.498;2023-07-09T05:30:58;10.32;;;6.35;;
52878;SDS011;38747;53.140;6.498;2023-07-09T05:33:24;11.48;;;6.45;;
52878;SDS011;38747;53.140;6.498;2023-07-09T05:35:49;10.90;;;6.67;;
52878;SDS011;38747;53.140;6.498;2023-07-09T05:38:15;10.32;;;6.18;;
52878;SDS011;38747;53.140;6.498;2023-07-09T05:40:41;11.63;;;6.70;;
52878;SDS011;38747;53.140;6.498;2023-07-09T05:43:08;11.40;;;6.40;;
52878;SDS011;38747;53.140;6.498;2023-07-09T05:45:34;11.48;;;6.75;;
52878;SDS011;38747;53.140;6.498;2023-07-09T05:48:01;10.68;;;6.40;;
52878;SDS011;38747;53.140;6.498;2023-07-09T05:50:27;10.48;;;6.55;;
52878;SDS011;38747;53.140;6.498;2023-07-09T05:52:54;9.77;;;6.20;;
52878;SDS011;38747;53.140;6.498;2023-07-09T05:55:19;10.32;;;6.40;;
52878;SDS011;38747;53.140;6.498;2023-07-09T05:57:45;10.93;;;6.93;;
52878;SDS011;38747;53.140;6.498;2023-07-09T06:00:12;12.63;;;7.00;;
52878;SDS011;38747;53.140;6.498;2023-07-09T06:02:38;11.07;;;6.60;;
52878;SDS011;38747;53.140;6.498;2023-07-09T06:05:04;11.98;;;6.78;;
52878;SDS011;38747;53.140;6.498;2023-07-09T06:07:36;11.55;;;7.10;;
52878;SDS011;38747;53.140;6.498;2023-07-09T06:10:02;12.00;;;6.78;;
52878;SDS011;38747;53.140;6.498;2023-07-09T06:12:30;12.53;;;6.87;;
52878;SDS011;38747;53.140;6.498;2023-07-09T06:14:56;11.57;;;6.68;;
52878;SDS011;38747;53.140;6.498;2023-07-09T06:17:22;10.32;;;6.68;;
52878;SDS011;38747;53.140;6.498;2023-07-09T06:19:47;11.43;;;7.00;;
52878;SDS011;38747;53.140;6.498;2023-07-09T06:22:13;10.90;;;7.00;;
52878;SDS011;38747;53.140;6.498;2023-07-09T06:24:39;12.00;;;7.40;;
52878;SDS011;38747;53.140;6.498;2023-07-09T06:27:04;12.40;;;7.63;;
52878;SDS011;38747;53.140;6.498;2023-07-09T06:29:30;15.93;;;7.23;;
52878;SDS011;38747;53.140;6.498;2023-07-09T06:31:56;11.88;;;7.30;;
52878;SDS011;38747;53.140;6.498;2023-07-09T06:34:21;10.77;;;6.47;;
52878;SDS011;38747;53.140;6.498;2023-07-09T06:36:47;13.50;;;7.30;;
52878;SDS011;38747;53.140;6.498;2023-07-09T06:39:13;13.07;;;7.10;;
52878;SDS011;38747;53.140;6.498;2023-07-09T06:41:38;11.93;;;7.13;;
52878;SDS011;38747;53.140;6.498;2023-07-09T06:44:07;11.80;;;7.17;;
52878;SDS011;38747;53.140;6.498;2023-07-09T06:46:34;11.25;;;7.07;;
52878;SDS011;38747;53.140;6.498;2023-07-09T06:49:01;11.07;;;7.50;;
52878;SDS011;38747;53.140;6.498;2023-07-09T06:51:28;12.43;;;6.90;;
52878;SDS011;38747;53.140;6.498;2023-07-09T06:53:53;11.47;;;6.80;;
52878;SDS011;38747;53.140;6.498;2023-07-09T06:56:19;11.57;;;6.85;;
52878;SDS011;38747;53.140;6.498;2023-07-09T06:58:45;13.37;;;6.50;;
52878;SDS011;38747;53.140;6.498;2023-07-09T07:01:11;12.07;;;6.90;;
52878;SDS011;38747;53.140;6.498;2023-07-09T07:03:37;11.15;;;6.75;;
52878;SDS011;38747;53.140;6.498;2023-07-09T07:06:05;14.53;;;6.93;;
52878;SDS011;38747;53.140;6.498;2023-07-09T07:08:32;13.13;;;6.70;;
52878;SDS011;38747;53.140;6.498;2023-07-09T07:10:58;12.80;;;7.30;;
52878;SDS011;38747;53.140;6.498;2023-07-09T07:13:29;11.02;;;6.50;;
52878;SDS011;38747;53.140;6.498;2023-07-09T07:16:00;10.02;;;5.78;;
52878;SDS011;38747;53.140;6.498;2023-07-09T07:18:26;12.17;;;6.57;;
52878;SDS011;38747;53.140;6.498;2023-07-09T07:20:52;12.13;;;6.57;;
52878;SDS011;38747;53.140;6.498;2023-07-09T07:23:17;10.40;;;6.67;;
52878;SDS011;38747;53.140;6.498;2023-07-09T07:25:46;10.60;;;5.85;;
52878;SDS011;38747;53.140;6.498;2023-07-09T07:28:12;15.07;;;6.65;;
52878;SDS011;38747;53.140;6.498;2023-07-09T07:30:38;11.45;;;6.22;;
52878;SDS011;38747;53.140;6.498;2023-07-09T07:33:04;11.23;;;6.00;;
52878;SDS011;38747;53.140;6.498;2023-07-09T07:35:30;12.45;;;6.22;;
52878;SDS011;38747;53.140;6.498;2023-07-09T07:37:55;10.70;;;6.57;;
52878;SDS011;38747;53.140;6.498;2023-07-09T07:40:22;10.95;;;5.85;;
52878;SDS011;38747;53.140;6.498;2023-07-09T07:42:47;10.40;;;5.90;;
52878;SDS011;38747;53.140;6.498;2023-07-09T07:45:13;10.97;;;5.80;;
52878;SDS011;38747;53.140;6.498;2023-07-09T07:47:39;10.93;;;5.85;;
52878;SDS011;38747;53.140;6.498;2023-07-09T07:50:05;10.05;;;5.95;;
52878;SDS011;38747;53.140;6.498;2023-07-09T07:52:32;10.25;;;6.18;;
52878;SDS011;38747;53.140;6.498;2023-07-09T07:55:03;10.70;;;5.90;;
52878;SDS011;38747;53.140;6.498;2023-07-09T07:57:30;11.43;;;6.35;;
52878;SDS011;38747;53.140;6.498;2023-07-09T07:59:55;12.05;;;6.10;;
52878;SDS011;38747;53.140;6.498;2023-07-09T08:02:22;8.97;;;5.93;;
52878;SDS011;38747;53.140;6.498;2023-07-09T08:04:48;11.52;;;6.43;;
52878;SDS011;38747;53.140;6.498;2023-07-09T08:07:16;11.43;;;6.03;;
52878;SDS011;38747;53.140;6.498;2023-07-09T08:09:43;11.43;;;6.00;;
52878;SDS011;38747;53.140;6.498;2023-07-09T08:12:11;10.32;;;5.90;;
52878;SDS011;38747;53.140;6.498;2023-07-09T08:14:38;10.55;;;5.50;;
52878;SDS011;38747;53.140;6.498;2023-07-09T08:17:04;12.45;;;6.30;;
52878;SDS011;38747;53.140;6.498;2023-07-09T08:19:31;12.23;;;6.35;;
52878;SDS011;38747;53.140;6.498;2023-07-09T08:21:57;12.83;;;6.40;;
52878;SDS011;38747;53.140;6.498;2023-07-09T08:24:23;10.32;;;5.90;;
52878;SDS011;38747;53.140;6.498;2023-07-09T08:26:48;10.13;;;6.10;;
52878;SDS011;38747;53.140;6.498;2023-07-09T08:29:14;14.17;;;6.90;;
52878;SDS011;38747;53.140;6.498;2023-07-09T08:31:41;10.93;;;6.72;;
52878;SDS011;38747;53.140;6.498;2023-07-09T08:34:07;12.50;;;6.80;;
52878;SDS011;38747;53.140;6.498;2023-07-09T08:36:33;10.87;;;6.27;;
52878;SDS011;38747;53.140;6.498;2023-07-09T08:39:01;14.13;;;6.80;;
52878;SDS011;38747;53.140;6.498;2023-07-09T08:41:39;11.40;;;6.30;;
52878;SDS011;38747;53.140;6.498;2023-07-09T08:44:14;13.40;;;6.80;;
52878;SDS011;38747;53.140;6.498;2023-07-09T08:49:47;13.30;;;6.80;;
52878;SDS011;38747;53.140;6.498;2023-07-09T08:52:28;12.20;;;6.97;;
52878;SDS011;38747;53.140;6.498;2023-07-09T08:55:07;12.13;;;7.82;;
52878;SDS011;38747;53.140;6.498;2023-07-09T08:57:49;14.45;;;6.85;;
52878;SDS011;38747;53.140;6.498;2023-07-09T09:03:03;10.90;;;7.20;;
52878;SDS011;38747;53.140;6.498;2023-07-09T09:05:33;12.13;;;7.07;;
52878;SDS011;38747;53.140;6.498;2023-07-09T09:08:26;10.57;;;6.60;;
52878;SDS011;38747;53.140;6.498;2023-07-09T09:13:50;13.23;;;7.45;;
52878;SDS011;38747;53.140;6.498;2023-07-09T09:16:27;14.45;;;8.30;;
52878;SDS011;38747;53.140;6.498;2023-07-09T09:18:57;11.03;;;7.23;;
52878;SDS011;38747;53.140;6.498;2023-07-09T09:21:34;11.38;;;7.20;;
52878;SDS011;38747;53.140;6.498;2023-07-09T09:26:43;12.23;;;6.93;;
52878;SDS011;38747;53.140;6.498;2023-07-09T09:29:14;11.93;;;7.60;;
52878;SDS011;38747;53.140;6.498;2023-07-09T09:31:41;11.53;;;7.47;;
52878;SDS011;38747;53.140;6.498;2023-07-09T09:34:20;12.90;;;7.85;;
52878;SDS011;38747;53.140;6.498;2023-07-09T09:36:48;13.27;;;8.27;;
52878;SDS011;38747;53.140;6.498;2023-07-09T09:39:14;12.52;;;8.05;;
52878;SDS011;38747;53.140;6.498;2023-07-09T09:41:39;13.67;;;8.70;;
52878;SDS011;38747;53.140;6.498;2023-07-09T09:44:15;13.70;;;8.80;;
52878;SDS011;38747;53.140;6.498;2023-07-09T09:46:49;14.15;;;8.45;;
52878;SDS011;38747;53.140;6.498;2023-07-09T09:49:15;13.38;;;8.07;;
52878;SDS011;38747;53.140;6.498;2023-07-09T09:51:42;14.63;;;8.97;;
52878;SDS011;38747;53.140;6.498;2023-07-09T09:54:20;13.57;;;9.20;;
52878;SDS011;38747;53.140;6.498;2023-07-09T09:56:49;14.38;;;8.45;;
52878;SDS011;38747;53.140;6.498;2023-07-09T09:59:20;11.13;;;7.47;;
52878;SDS011;38747;53.140;6.498;2023-07-09T10:01:57;13.13;;;9.03;;
52878;SDS011;38747;53.140;6.498;2023-07-09T10:04:24;13.25;;;8.30;;
52878;SDS011;38747;53.140;6.498;2023-07-09T10:06:50;14.15;;;9.68;;
52878;SDS011;38747;53.140;6.498;2023-07-09T10:12:13;12.93;;;8.80;;
52878;SDS011;38747;53.140;6.498;2023-07-09T10:17:54;15.18;;;9.43;;
52878;SDS011;38747;53.140;6.498;2023-07-09T10:20:50;13.95;;;8.13;;
52878;SDS011;38747;53.140;6.498;2023-07-09T10:23:27;13.30;;;8.77;;
52878;SDS011;38747;53.140;6.498;2023-07-09T10:26:14;13.98;;;8.00;;
52878;SDS011;38747;53.140;6.498;2023-07-09T10:29:07;12.88;;;8.50;;
52878;SDS011;38747;53.140;6.498;2023-07-09T10:34:55;15.57;;;8.90;;
52878;SDS011;38747;53.140;6.498;2023-07-09T10:40:14;12.73;;;8.05;;
52878;SDS011;38747;53.140;6.498;2023-07-09T10:42:45;12.77;;;8.07;;
52878;SDS011;38747;53.140;6.498;2023-07-09T10:45:16;14.25;;;8.05;;
52878;SDS011;38747;53.140;6.498;2023-07-09T10:47:53;14.60;;;8.55;;
52878;SDS011;38747;53.140;6.498;2023-07-09T10:50:31;14.50;;;7.57;;
52878;SDS011;38747;53.140;6.498;2023-07-09T10:53:05;13.52;;;7.90;;
52878;SDS011;38747;53.140;6.498;2023-07-09T10:56:01;12.15;;;7.47;;
52878;SDS011;38747;53.140;6.498;2023-07-09T10:58:39;12.55;;;7.93;;
52878;SDS011;38747;53.140;6.498;2023-07-09T11:01:16;11.27;;;7.55;;
52878;SDS011;38747;53.140;6.498;2023-07-09T11:03:50;11.90;;;7.63;;
52878;SDS011;38747;53.140;6.498;2023-07-09T11:06:19;12.88;;;7.90;;
52878;SDS011;38747;53.140;6.498;2023-07-09T11:08:47;15.48;;;8.50;;
52878;SDS011;38747;53.140;6.498;2023-07-09T11:11:21;12.55;;;8.40;;
52878;SDS011;38747;53.140;6.498;2023-07-09T11:13:55;13.77;;;7.65;;
52878;SDS011;38747;53.140;6.498;2023-07-09T11:16:29;12.20;;;7.73;;
52878;SDS011;38747;53.140;6.498;2023-07-09T11:19:01;11.68;;;7.13;;
52878;SDS011;38747;53.140;6.498;2023-07-09T11:21:28;11.35;;;7.55;;
52878;SDS011;38747;53.140;6.498;2023-07-09T11:23:55;11.75;;;7.07;;
52878;SDS011;38747;53.140;6.498;2023-07-09T11:34:28;11.88;;;7.32;;
52878;SDS011;38747;53.140;6.498;2023-07-09T11:42:51;13.38;;;7.20;;
52878;SDS011;38747;53.140;6.498;2023-07-09T11:47:42;11.77;;;6.93;;
52878;SDS011;38747;53.140;6.498;2023-07-09T11:50:24;10.83;;;7.30;;
52878;SDS011;38747;53.140;6.498;2023-07-09T11:57:55;12.77;;;7.13;;
52878;SDS011;38747;53.140;6.498;2023-07-09T12:00:22;13.30;;;7.50;;
52878;SDS011;38747;53.140;6.498;2023-07-09T12:02:48;11.93;;;7.60;;
52878;SDS011;38747;53.140;6.498;2023-07-09T12:05:17;11.63;;;7.03;;
52878;SDS011;38747;53.140;6.498;2023-07-09T12:07:46;10.63;;;6.78;;
52878;SDS011;38747;53.140;6.498;2023-07-09T12:10:22;11.13;;;7.47;;
52878;SDS011;38747;53.140;6.498;2023-07-09T12:12:56;11.87;;;7.30;;
52878;SDS011;38747;53.140;6.498;2023-07-09T12:18:01;9.15;;;6.20;;
52878;SDS011;38747;53.140;6.498;2023-07-09T12:20:30;11.02;;;6.22;;
52878;SDS011;38747;53.140;6.498;2023-07-09T12:22:59;12.73;;;6.90;;
52878;SDS011;38747;53.140;6.498;2023-07-09T12:25:35;10.53;;;6.30;;
52878;SDS011;38747;53.140;6.498;2023-07-09T12:28:00;11.13;;;6.88;;
52878;SDS011;38747;53.140;6.498;2023-07-09T12:30:27;9.50;;;6.50;;
52878;SDS011;38747;53.140;6.498;2023-07-09T12:32:57;13.23;;;7.18;;
52878;SDS011;38747;53.140;6.498;2023-07-09T12:35:22;10.35;;;6.00;;
52878;SDS011;38747;53.140;6.498;2023-07-09T12:37:48;9.80;;;5.90;;
52878;SDS011;38747;53.140;6.498;2023-07-09T12:40:21;10.70;;;6.47;;
52878;SDS011;38747;53.140;6.498;2023-07-09T12:42:48;13.07;;;6.30;;
52878;SDS011;38747;53.140;6.498;2023-07-09T12:45:15;9.63;;;6.15;;
52878;SDS011;38747;53.140;6.498;2023-07-09T12:47:42;10.05;;;5.60;;
52878;SDS011;38747;53.140;6.498;2023-07-09T12:50:16;9.47;;;5.80;;
52878;SDS011;38747;53.140;6.498;2023-07-09T12:52:45;9.77;;;5.63;;
52878;SDS011;38747;53.140;6.498;2023-07-09T12:55:19;9.20;;;5.25;;
52878;SDS011;38747;53.140;6.498;2023-07-09T12:57:47;8.85;;;4.55;;
52878;SDS011;38747;53.140;6.498;2023-07-09T13:00:16;8.80;;;4.80;;
52878;SDS011;38747;53.140;6.498;2023-07-09T13:02:42;8.73;;;4.90;;
52878;SDS011;38747;53.140;6.498;2023-07-09T13:05:27;10.45;;;5.55;;
52878;SDS011;38747;53.140;6.498;2023-07-09T13:07:53;10.25;;;5.05;;
52878;SDS011;38747;53.140;6.498;2023-07-09T13:10:27;8.90;;;5.43;;
52878;SDS011;38747;53.140;6.498;2023-07-09T13:12:55;9.13;;;4.93;;
52878;SDS011;38747;53.140;6.498;2023-07-09T13:15:38;10.52;;;5.30;;
52878;SDS011;38747;53.140;6.498;2023-07-09T13:18:09;9.45;;;4.88;;
52878;SDS011;38747;53.140;6.498;2023-07-09T13:20:38;9.27;;;4.63;;
52878;SDS011;38747;53.140;6.498;2023-07-09T13:23:19;8.00;;;4.47;;
52878;SDS011;38747;53.140;6.498;2023-07-09T13:25:49;9.20;;;4.97;;
52878;SDS011;38747;53.140;6.498;2023-07-09T13:28:19;9.52;;;4.85;;
52878;SDS011;38747;53.140;6.498;2023-07-09T13:30:47;8.35;;;4.50;;
52878;SDS011;38747;53.140;6.498;2023-07-09T13:33:16;7.78;;;4.45;;
52878;SDS011;38747;53.140;6.498;2023-07-09T13:35:43;9.02;;;4.82;;
52878;SDS011;38747;53.140;6.498;2023-07-09T13:38:13;8.60;;;4.83;;
52878;SDS011;38747;53.140;6.498;2023-07-09T13:40:43;9.45;;;5.18;;
52878;SDS011;38747;53.140;6.498;2023-07-09T13:43:15;9.15;;;4.63;;
52878;SDS011;38747;53.140;6.498;2023-07-09T13:45:45;8.75;;;4.90;;
52878;SDS011;38747;53.140;6.498;2023-07-09T13:48:15;9.27;;;5.20;;
52878;SDS011;38747;53.140;6.498;2023-07-09T13:50:42;9.98;;;5.38;;
52878;SDS011;38747;53.140;6.498;2023-07-09T13:53:12;9.40;;;5.03;;
52878;SDS011;38747;53.140;6.498;2023-07-09T13:55:40;8.82;;;4.93;;
52878;SDS011;38747;53.140;6.498;2023-07-09T13:58:10;9.43;;;5.50;;
52878;SDS011;38747;53.140;6.498;2023-07-09T14:00:37;7.50;;;4.60;;
52878;SDS011;38747;53.140;6.498;2023-07-09T14:03:07;10.38;;;5.40;;
52878;SDS011;38747;53.140;6.498;2023-07-09T14:05:39;10.75;;;4.72;;
52878;SDS011;38747;53.140;6.498;2023-07-09T14:08:04;10.13;;;4.70;;
52878;SDS011;38747;53.140;6.498;2023-07-09T14:10:32;9.15;;;5.18;;
52878;SDS011;38747;53.140;6.498;2023-07-09T14:12:58;10.63;;;5.43;;
52878;SDS011;38747;53.140;6.498;2023-07-09T14:15:23;8.60;;;5.40;;
52878;SDS011;38747;53.140;6.498;2023-07-09T14:17:49;9.80;;;5.05;;
52878;SDS011;38747;53.140;6.498;2023-07-09T14:20:16;11.85;;;5.75;;
52878;SDS011;38747;53.140;6.498;2023-07-09T14:22:47;10.67;;;5.50;;
52878;SDS011;38747;53.140;6.498;2023-07-09T14:25:18;10.88;;;5.38;;
52878;SDS011;38747;53.140;6.498;2023-07-09T14:27:46;10.52;;;5.45;;
52878;SDS011;38747;53.140;6.498;2023-07-09T14:30:16;11.82;;;5.32;;
52878;SDS011;38747;53.140;6.498;2023-07-09T14:32:45;9.38;;;5.57;;
52878;SDS011;38747;53.140;6.498;2023-07-09T14:35:13;8.80;;;5.50;;
52878;SDS011;38747;53.140;6.498;2023-07-09T14:37:39;10.27;;;5.60;;
52878;SDS011;38747;53.140;6.498;2023-07-09T14:40:06;8.65;;;5.28;;
52878;SDS011;38747;53.140;6.498;2023-07-09T14:42:32;9.15;;;5.03;;
52878;SDS011;38747;53.140;6.498;2023-07-09T14:44:58;10.75;;;6.60;;
52878;SDS011;38747;53.140;6.498;2023-07-09T14:47:24;8.80;;;5.20;;
52878;SDS011;38747;53.140;6.498;2023-07-09T14:49:49;9.30;;;5.20;;
52878;SDS011;38747;53.140;6.498;2023-07-09T14:52:16;7.88;;;4.55;;
52878;SDS011;38747;53.140;6.498;2023-07-09T14:54:44;8.80;;;5.60;;
52878;SDS011;38747;53.140;6.498;2023-07-09T14:57:22;9.80;;;5.35;;
52878;SDS011;38747;53.140;6.498;2023-07-09T14:59:51;10.15;;;5.32;;
52878;SDS011;38747;53.140;6.498;2023-07-09T15:04:46;8.30;;;4.60;;
52878;SDS011;38747;53.140;6.498;2023-07-09T15:07:13;11.55;;;5.28;;
52878;SDS011;38747;53.140;6.498;2023-07-09T15:09:39;8.90;;;5.00;;
52878;SDS011;38747;53.140;6.498;2023-07-09T15:12:08;8.88;;;5.15;;
52878;SDS011;38747;53.140;6.498;2023-07-09T15:14:40;9.80;;;5.20;;
52878;SDS011;38747;53.140;6.498;2023-07-09T15:17:07;9.43;;;5.20;;
52878;SDS011;38747;53.140;6.498;2023-07-09T15:19:35;10.65;;;5.65;;
52878;SDS011;38747;53.140;6.498;2023-07-09T15:22:00;10.93;;;5.70;;
52878;SDS011;38747;53.140;6.498;2023-07-09T15:24:30;12.40;;;5.72;;
52878;SDS011;38747;53.140;6.498;2023-07-09T15:26:59;10.23;;;4.80;;
52878;SDS011;38747;53.140;6.498;2023-07-09T15:29:26;9.40;;;4.40;;
52878;SDS011;38747;53.140;6.498;2023-07-09T15:31:53;11.80;;;4.13;;
52878;SDS011;38747;53.140;6.498;2023-07-09T15:34:18;10.05;;;3.63;;
52878;SDS011;38747;53.140;6.498;2023-07-09T15:36:45;9.90;;;3.70;;
52878;SDS011;38747;53.140;6.498;2023-07-09T15:39:15;11.95;;;4.43;;